createdAt,value
2017-12-01T00:01:05.005Z,40.47
2017-12-01T00:02:13.639Z,40.49
2017-12-01T00:03:22.581Z,40.37
2017-12-01T00:04:32.294Z,40.39
2017-12-01T00:05:41.467Z,40.28
2017-12-01T00:06:50.690Z,40.18
2017-12-01T00:07:59.914Z,40.28
2017-12-01T00:09:09.077Z,40.08
2017-12-01T00:10:18.272Z,40.28
2017-12-01T00:11:27.472Z,40.28
2017-12-01T00:12:36.685Z,40.37
2017-12-01T00:13:45.361Z,40.18
2017-12-01T00:14:54.003Z,40.37
2017-12-01T00:16:03.186Z,40.28
2017-12-01T00:17:11.846Z,40.28
2017-12-01T00:18:21.039Z,40.18
2017-12-01T00:19:29.677Z,40.18
2017-12-01T00:20:38.342Z,40.37
2017-12-01T00:21:47.328Z,40.18
2017-12-01T00:22:56.498Z,40.37
2017-12-01T00:24:05.657Z,40.37
2017-12-01T00:25:15.100Z,40.18
2017-12-01T00:26:24.276Z,40.28
2017-12-01T00:27:33.189Z,40.28
2017-12-01T00:28:42.442Z,40.28
2017-12-01T00:29:51.607Z,40.37
2017-12-01T00:31:00.780Z,40.28
2017-12-01T00:32:09.935Z,40.08
2017-12-01T00:33:19.362Z,40.28
2017-12-01T00:34:28.295Z,40.28
2017-12-01T00:35:36.936Z,40.28
2017-12-01T00:36:45.569Z,40.28
2017-12-01T00:37:54.543Z,40.18
2017-12-01T00:39:03.739Z,40.47
2017-12-01T00:40:12.412Z,40.28
2017-12-01T00:41:21.594Z,40.47
2017-12-01T00:42:30.757Z,40.18
2017-12-01T00:43:39.770Z,40.37
2017-12-01T00:44:48.935Z,40.28
2017-12-01T00:45:58.135Z,40.47
2017-12-01T00:47:07.299Z,40.37
2017-12-01T00:48:16.496Z,40.18
2017-12-01T00:49:25.661Z,40.18
2017-12-01T00:50:34.566Z,40.37
2017-12-01T00:51:43.481Z,40.37
2017-12-01T00:52:52.121Z,40.37
2017-12-01T00:54:01.099Z,40.37
2017-12-01T00:55:10.530Z,40.47
2017-12-01T00:56:19.180Z,40.37
2017-12-01T00:57:28.357Z,40.47
2017-12-01T00:58:37.265Z,40.18
2017-12-01T00:59:46.455Z,40.18
2017-12-01T01:00:55.410Z,40.28
2017-12-01T01:02:04.588Z,40.37
2017-12-01T01:03:13.745Z,40.18
2017-12-01T01:04:22.941Z,40.18
2017-12-01T01:05:31.599Z,40.28
2017-12-01T01:06:40.757Z,40.18
2017-12-01T01:07:49.949Z,40.28
2017-12-01T01:08:59.112Z,40.37
2017-12-01T01:10:08.027Z,40.37
2017-12-01T01:11:17.006Z,40.28
2017-12-01T01:12:26.431Z,40.37
2017-12-01T01:13:35.351Z,40.28
2017-12-01T01:14:44.537Z,40.47
2017-12-01T01:15:53.963Z,40.37
2017-12-01T01:17:03.377Z,40.37
2017-12-01T01:18:12.547Z,40.47
2017-12-01T01:19:21.709Z,40.37
2017-12-01T01:20:31.137Z,40.47
2017-12-01T01:21:40.336Z,40.47
2017-12-01T01:22:49.010Z,40.37
2017-12-01T01:23:57.943Z,40.37
2017-12-01T01:25:07.381Z,40.47
2017-12-01T01:26:16.566Z,40.47
2017-12-01T01:27:25.482Z,40.37
2017-12-01T01:28:34.383Z,40.37
2017-12-01T01:29:43.545Z,40.37
2017-12-01T01:30:52.221Z,40.47
2017-12-01T01:32:01.397Z,40.37
2017-12-01T01:33:10.313Z,40.37
2017-12-01T01:34:20.006Z,40.47
2017-12-01T01:35:29.482Z,40.37
2017-12-01T01:36:38.655Z,40.37
2017-12-01T01:37:48.073Z,40.37
2017-12-01T01:38:56.716Z,40.37
2017-12-01T01:40:06.419Z,40.28
2017-12-01T01:41:15.591Z,40.37
2017-12-01T01:42:24.553Z,40.37
2017-12-01T01:43:33.800Z,40.37
2017-12-01T01:44:43.233Z,40.37
2017-12-01T01:45:52.407Z,40.47
2017-12-01T01:47:02.092Z,40.47
2017-12-01T01:48:11.266Z,40.47
2017-12-01T01:49:20.471Z,40.47
2017-12-01T01:50:30.192Z,40.37
2017-12-01T01:51:38.837Z,40.47
2017-12-01T01:52:47.799Z,40.37
2017-12-01T01:53:56.704Z,40.08
2017-12-01T01:55:05.879Z,40.47
2017-12-01T01:56:15.040Z,40.08
2017-12-01T01:57:24.541Z,40.37
2017-12-01T01:58:33.995Z,40.37
2017-12-01T01:59:42.639Z,40.37
2017-12-01T02:00:51.355Z,40.47
2017-12-01T02:02:00.559Z,39.89
2017-12-01T02:03:09.471Z,40.47
2017-12-01T02:04:18.896Z,40.08
2017-12-01T02:05:28.313Z,40.37
2017-12-01T02:06:37.216Z,40.47
2017-12-01T02:07:46.633Z,40.37
2017-12-01T02:08:56.092Z,40.47
2017-12-01T02:10:05.792Z,40.47
2017-12-01T02:11:14.698Z,40.47
2017-12-01T02:12:23.609Z,39.99
2017-12-01T02:13:32.516Z,39.89
2017-12-01T02:14:41.943Z,39.89
2017-12-01T02:15:51.106Z,39.89
2017-12-01T02:17:00.017Z,39.89
2017-12-01T02:18:08.969Z,39.89
2017-12-01T02:19:18.133Z,39.89
2017-12-01T02:20:27.035Z,39.7
2017-12-01T02:21:35.939Z,39.89
2017-12-01T02:22:44.906Z,39.89
2017-12-01T02:23:53.810Z,39.89
2017-12-01T02:25:02.726Z,39.89
2017-12-01T02:26:11.879Z,39.89
2017-12-01T02:27:20.781Z,39.99
2017-12-01T02:28:29.715Z,39.89
2017-12-01T02:29:38.361Z,39.89
2017-12-01T02:30:47.582Z,39.99
2017-12-01T02:31:57.004Z,39.7
2017-12-01T02:33:06.192Z,39.89
2017-12-01T02:34:15.673Z,39.89
2017-12-01T02:35:24.859Z,39.7
2017-12-01T02:36:33.775Z,39.99
2017-12-01T02:37:42.942Z,39.51
2017-12-01T02:38:52.386Z,39.79
2017-12-01T02:40:01.550Z,39.99
2017-12-01T02:41:10.982Z,39.61
2017-12-01T02:42:20.711Z,39.99
2017-12-01T02:43:29.918Z,39.99
2017-12-01T02:44:39.377Z,39.7
2017-12-01T02:45:48.538Z,39.79
2017-12-01T02:46:57.441Z,39.79
2017-12-01T02:48:06.873Z,39.7
2017-12-01T02:49:16.052Z,39.99
2017-12-01T02:50:25.212Z,39.7
2017-12-01T02:51:33.863Z,39.89
2017-12-01T02:52:43.055Z,39.79
2017-12-01T02:53:52.253Z,39.7
2017-12-01T02:55:01.466Z,39.51
2017-12-01T02:56:10.145Z,39.7
2017-12-01T02:57:19.850Z,39.79
2017-12-01T02:58:28.746Z,40.08
2017-12-01T02:59:37.429Z,39.99
2017-12-01T03:00:46.080Z,39.99
2017-12-01T03:01:55.262Z,39.89
2017-12-01T03:03:04.700Z,39.89
2017-12-01T03:04:13.892Z,39.89
2017-12-01T03:05:23.335Z,39.89
2017-12-01T03:06:32.512Z,39.61
2017-12-01T03:07:41.957Z,39.7
2017-12-01T03:08:51.138Z,39.89
2017-12-01T03:10:00.828Z,39.51
2017-12-01T03:11:10.012Z,39.89
2017-12-01T03:12:19.441Z,39.61
2017-12-01T03:13:28.114Z,39.51
2017-12-01T03:14:37.040Z,39.51
2017-12-01T03:15:46.266Z,39.61
2017-12-01T03:16:55.431Z,39.61
2017-12-01T03:18:04.839Z,39.89
2017-12-01T03:19:14.016Z,39.89
2017-12-01T03:20:22.712Z,39.79
2017-12-01T03:21:31.879Z,39.89
2017-12-01T03:22:41.035Z,39.79
2017-12-01T03:23:49.689Z,39.79
2017-12-01T03:24:59.655Z,39.79
2017-12-01T03:26:09.368Z,39.79
2017-12-01T03:27:18.527Z,39.89
2017-12-01T03:28:27.449Z,39.61
2017-12-01T03:29:36.607Z,39.89
2017-12-01T03:30:45.505Z,39.61
2017-12-01T03:31:54.678Z,39.7
2017-12-01T03:33:03.874Z,39.79
2017-12-01T03:34:13.029Z,39.79
2017-12-01T03:35:22.479Z,39.79
2017-12-01T03:36:32.199Z,39.89
2017-12-01T03:37:41.137Z,39.61
2017-12-01T03:38:50.043Z,39.61
2017-12-01T03:39:58.963Z,39.61
2017-12-01T03:41:08.123Z,39.79
2017-12-01T03:42:17.291Z,39.61
2017-12-01T03:43:25.935Z,39.61
2017-12-01T03:44:35.119Z,39.61
2017-12-01T03:45:43.772Z,39.61
2017-12-01T03:46:52.486Z,39.61
2017-12-01T03:48:01.657Z,39.61
2017-12-01T03:49:10.822Z,39.7
2017-12-01T03:50:19.800Z,39.61
2017-12-01T03:51:28.984Z,39.61
2017-12-01T03:52:37.889Z,39.61
2017-12-01T03:53:46.781Z,39.51
2017-12-01T03:54:55.945Z,39.61
2017-12-01T03:56:05.128Z,39.61
2017-12-01T03:57:14.556Z,39.61
2017-12-01T03:58:24.035Z,39.7
2017-12-01T03:59:32.696Z,39.61
2017-12-01T04:00:42.174Z,39.61
2017-12-01T04:01:51.073Z,39.61
2017-12-01T04:03:00.270Z,39.7
2017-12-01T04:04:09.697Z,39.61
2017-12-01T04:05:18.618Z,39.51
2017-12-01T04:06:27.833Z,39.61
2017-12-01T04:07:36.759Z,39.61
2017-12-01T04:08:45.921Z,39.61
2017-12-01T04:09:54.570Z,39.79
2017-12-01T04:11:03.216Z,39.7
2017-12-01T04:12:12.112Z,39.79
2017-12-01T04:13:20.766Z,39.61
2017-12-01T04:14:29.432Z,39.7
2017-12-01T04:15:38.338Z,39.7
2017-12-01T04:16:47.762Z,39.61
2017-12-01T04:17:56.922Z,39.61
2017-12-01T04:19:05.825Z,39.61
2017-12-01T04:20:14.996Z,39.61
2017-12-01T04:21:23.956Z,39.7
2017-12-01T04:22:33.386Z,39.79
2017-12-01T04:23:42.299Z,39.7
2017-12-01T04:24:51.219Z,39.7
2017-12-01T04:26:00.663Z,39.61
2017-12-01T04:27:09.567Z,39.61
2017-12-01T04:28:18.747Z,39.41
2017-12-01T04:29:27.968Z,39.41
2017-12-01T04:30:36.609Z,39.51
2017-12-01T04:31:45.525Z,39.41
2017-12-01T04:32:54.797Z,39.31
2017-12-01T04:34:04.759Z,39.51
2017-12-01T04:35:13.728Z,39.61
2017-12-01T04:36:22.638Z,39.51
2017-12-01T04:37:31.298Z,39.41
2017-12-01T04:38:40.198Z,39.51
2017-12-01T04:39:49.392Z,39.79
2017-12-01T04:40:58.566Z,39.41
2017-12-01T04:42:07.734Z,39.41
2017-12-01T04:43:17.166Z,39.61
2017-12-01T04:44:26.069Z,39.61
2017-12-01T04:45:34.995Z,39.41
2017-12-01T04:46:43.671Z,39.61
2017-12-01T04:47:52.857Z,39.41
2017-12-01T04:49:01.777Z,39.51
2017-12-01T04:50:10.691Z,39.41
2017-12-01T04:51:19.608Z,39.41
2017-12-01T04:52:28.530Z,39.51
2017-12-01T04:53:37.445Z,39.51
2017-12-01T04:54:47.135Z,39.22
2017-12-01T04:55:56.316Z,39.61
2017-12-01T04:57:05.503Z,39.41
2017-12-01T04:58:14.420Z,39.22
2017-12-01T04:59:23.065Z,39.51
2017-12-01T05:00:32.235Z,39.31
2017-12-01T05:01:41.688Z,39.22
2017-12-01T05:02:51.105Z,39.41
2017-12-01T05:04:00.010Z,39.41
2017-12-01T05:05:09.435Z,39.12
2017-12-01T05:06:18.593Z,39.12
2017-12-01T05:07:27.747Z,39.41
2017-12-01T05:08:37.181Z,39.31
2017-12-01T05:09:46.072Z,39.31
2017-12-01T05:10:54.960Z,39.31
2017-12-01T05:12:04.158Z,39.22
2017-12-01T05:13:13.080Z,39.12
2017-12-01T05:14:21.742Z,39.22
2017-12-01T05:15:30.679Z,39.03
2017-12-01T05:16:39.578Z,39.31
2017-12-01T05:17:48.473Z,39.12
2017-12-01T05:18:57.383Z,39.12
2017-12-01T05:20:06.548Z,39.41
2017-12-01T05:21:15.455Z,39.03
2017-12-01T05:22:24.367Z,39.22
2017-12-01T05:23:33.514Z,39.41
2017-12-01T05:24:42.456Z,39.31
2017-12-01T05:25:51.087Z,39.41
2017-12-01T05:27:00.247Z,39.03
2017-12-01T05:28:09.950Z,39.41
2017-12-01T05:29:19.172Z,39.12
2017-12-01T05:30:28.348Z,39.31
2017-12-01T05:31:37.509Z,39.22
2017-12-01T05:32:46.409Z,39.12
2017-12-01T05:33:55.582Z,39.12
2017-12-01T05:35:04.491Z,39.12
2017-12-01T05:36:13.390Z,39.31
2017-12-01T05:37:22.558Z,39.31
2017-12-01T05:38:31.475Z,39.31
2017-12-01T05:39:40.371Z,39.03
2017-12-01T05:40:49.552Z,38.93
2017-12-01T05:41:58.452Z,39.03
2017-12-01T05:43:07.634Z,39.12
2017-12-01T05:44:16.817Z,38.54
2017-12-01T05:45:25.990Z,38.45
2017-12-01T05:46:34.909Z,38.47
2017-12-01T05:47:43.560Z,38.18
2017-12-01T05:48:52.793Z,38.28
2017-12-01T05:50:01.459Z,38.37
2017-12-01T05:51:10.635Z,38.37
2017-12-01T05:52:19.821Z,37.89
2017-12-01T05:53:28.743Z,37.81
2017-12-01T05:54:37.655Z,37.6
2017-12-01T05:55:46.812Z,37.52
2017-12-01T05:56:55.723Z,37.52
2017-12-01T05:58:04.912Z,37.62
2017-12-01T05:59:13.838Z,37.72
2017-12-01T06:00:22.497Z,37.72
2017-12-01T06:01:31.411Z,37.62
2017-12-01T06:02:40.086Z,37.62
2017-12-01T06:03:49.824Z,37.34
2017-12-01T06:04:59.003Z,37.26
2017-12-01T06:06:08.463Z,37.16
2017-12-01T06:07:17.650Z,37.06
2017-12-01T06:08:27.147Z,37.16
2017-12-01T06:09:36.353Z,37.16
2017-12-01T06:10:45.577Z,36.87
2017-12-01T06:11:55.028Z,36.87
2017-12-01T06:13:03.955Z,37.16
2017-12-01T06:14:12.851Z,37.06
2017-12-01T06:15:22.300Z,37.06
2017-12-01T06:16:31.498Z,36.79
2017-12-01T06:17:40.412Z,36.89
2017-12-01T06:18:49.071Z,36.6
2017-12-01T06:19:57.978Z,36.6
2017-12-01T06:21:07.157Z,36.89
2017-12-01T06:22:16.867Z,36.69
2017-12-01T06:23:25.520Z,36.6
2017-12-01T06:24:34.731Z,36.69
2017-12-01T06:25:43.499Z,36.69
2017-12-01T06:26:52.404Z,36.23
2017-12-01T06:28:01.419Z,36.43
2017-12-01T06:29:10.096Z,36.33
2017-12-01T06:30:19.800Z,36.23
2017-12-01T06:31:29.217Z,36.23
2017-12-01T06:32:38.668Z,36.43
2017-12-01T06:33:47.849Z,36.23
2017-12-01T06:34:56.775Z,36.13
2017-12-01T06:36:06.467Z,36.04
2017-12-01T06:37:16.457Z,35.85
2017-12-01T06:38:25.630Z,35.96
2017-12-01T06:39:34.832Z,35.86
2017-12-01T06:40:44.252Z,35.85
2017-12-01T06:41:53.427Z,35.96
2017-12-01T06:43:02.348Z,35.67
2017-12-01T06:44:11.024Z,35.86
2017-12-01T06:45:20.196Z,35.77
2017-12-01T06:46:29.374Z,35.86
2017-12-01T06:47:39.081Z,35.58
2017-12-01T06:48:48.273Z,35.77
2017-12-01T06:49:57.223Z,35.58
2017-12-01T06:51:06.138Z,35.58
2017-12-01T06:52:15.065Z,35.48
2017-12-01T06:53:23.974Z,35.4
2017-12-01T06:54:33.428Z,35.5
2017-12-01T06:55:42.774Z,35.69
2017-12-01T06:56:51.965Z,35.78
2017-12-01T06:58:01.394Z,35.78
2017-12-01T06:59:10.556Z,35.78
2017-12-01T07:00:20.022Z,35.78
2017-12-01T07:01:29.517Z,36.07
2017-12-01T07:02:38.434Z,35.77
2017-12-01T07:03:47.646Z,35.88
2017-12-01T07:04:56.367Z,35.77
2017-12-01T07:06:05.806Z,35.96
2017-12-01T07:07:15.232Z,36.15
2017-12-01T07:08:24.126Z,36.35
2017-12-01T07:09:33.296Z,36.35
2017-12-01T07:10:43.064Z,35.96
2017-12-01T07:11:52.533Z,36.35
2017-12-01T07:13:01.424Z,36.44
2017-12-01T07:14:10.595Z,36.63
2017-12-01T07:15:19.848Z,36.63
2017-12-01T07:16:29.028Z,36.63
2017-12-01T07:17:38.213Z,36.54
2017-12-01T07:18:47.183Z,36.73
2017-12-01T07:19:55.821Z,37.02
2017-12-01T07:21:05.252Z,37.02
2017-12-01T07:22:14.962Z,37.02
2017-12-01T07:23:24.713Z,37.21
2017-12-01T07:24:34.221Z,37.02
2017-12-01T07:25:43.813Z,37.01
2017-12-01T07:26:52.969Z,37.19
2017-12-01T07:28:01.634Z,37.39
2017-12-01T07:29:10.270Z,37.19
2017-12-01T07:30:19.449Z,37.58
2017-12-01T07:31:28.449Z,37.58
2017-12-01T07:32:37.883Z,37.58
2017-12-01T07:33:47.130Z,37.77
2017-12-01T07:34:56.845Z,37.87
2017-12-01T07:36:06.274Z,37.68
2017-12-01T07:37:15.448Z,37.68
2017-12-01T07:38:24.103Z,37.85
2017-12-01T07:39:33.532Z,37.66
2017-12-01T07:40:42.191Z,37.76
2017-12-01T07:41:51.106Z,37.56
2017-12-01T07:42:59.818Z,37.66
2017-12-01T07:44:08.984Z,37.85
2017-12-01T07:45:17.649Z,38.04
2017-12-01T07:46:26.839Z,38.14
2017-12-01T07:47:35.742Z,38.33
2017-12-01T07:48:45.467Z,38.43
2017-12-01T07:49:54.679Z,38.24
2017-12-01T07:51:04.101Z,38.33
2017-12-01T07:52:13.285Z,38.33
2017-12-01T07:53:21.948Z,38.31
2017-12-01T07:54:31.132Z,38.22
2017-12-01T07:55:40.312Z,38.22
2017-12-01T07:56:49.733Z,38.33
2017-12-01T07:57:58.636Z,38.41
2017-12-01T07:59:07.810Z,38.6
2017-12-01T08:00:17.540Z,38.41
2017-12-01T08:01:26.901Z,38.41
2017-12-01T08:02:36.074Z,38.41
2017-12-01T08:03:45.761Z,38.7
2017-12-01T08:04:55.440Z,38.51
2017-12-01T08:06:04.950Z,38.41
2017-12-01T08:07:14.119Z,38.6
2017-12-01T08:08:23.027Z,38.51
2017-12-01T08:09:32.199Z,38.51
2017-12-01T08:10:40.860Z,38.7
2017-12-01T08:11:49.552Z,38.51
2017-12-01T08:12:58.244Z,38.6
2017-12-01T08:14:07.693Z,38.79
2017-12-01T08:15:16.354Z,38.89
2017-12-01T08:16:26.061Z,38.79
2017-12-01T08:17:35.516Z,38.89
2017-12-01T08:18:44.441Z,38.99
2017-12-01T08:19:53.623Z,38.99
2017-12-01T08:21:02.914Z,39.37
2017-12-01T08:22:12.127Z,39.26
2017-12-01T08:23:21.330Z,39.06
2017-12-01T08:24:30.011Z,39.36
2017-12-01T08:25:38.682Z,39.26
2017-12-01T08:26:47.611Z,39.36
2017-12-01T08:27:56.831Z,39.36
2017-12-01T08:29:06.262Z,39.36
2017-12-01T08:30:15.207Z,39.16
2017-12-01T08:31:24.379Z,39.16
2017-12-01T08:32:33.550Z,39.16
2017-12-01T08:33:42.520Z,39.06
2017-12-01T08:34:51.433Z,39.26
2017-12-01T08:36:00.605Z,39.16
2017-12-01T08:37:10.101Z,39.16
2017-12-01T08:38:19.295Z,39.06
2017-12-01T08:39:28.517Z,39.16
2017-12-01T08:40:37.432Z,38.78
2017-12-01T08:41:46.625Z,38.97
2017-12-01T08:42:55.328Z,39.16
2017-12-01T08:44:04.006Z,39.16
2017-12-01T08:45:12.934Z,39.26
2017-12-01T08:46:22.117Z,39.06
2017-12-01T08:47:30.801Z,38.97
2017-12-01T08:48:40.493Z,39.26
2017-12-01T08:49:49.942Z,39.16
2017-12-01T08:50:58.598Z,39.16
2017-12-01T08:52:07.785Z,39.26
2017-12-01T08:53:16.964Z,39.16
2017-12-01T08:54:26.188Z,39.16
2017-12-01T08:55:35.612Z,39.26
2017-12-01T08:56:44.540Z,39.36
2017-12-01T08:57:53.979Z,39.26
2017-12-01T08:59:03.162Z,39.26
2017-12-01T09:00:12.373Z,39.26
2017-12-01T09:01:21.560Z,39.16
2017-12-01T09:02:31.013Z,39.26
2017-12-01T09:03:40.255Z,39.26
2017-12-01T09:04:49.156Z,39.36
2017-12-01T09:05:58.350Z,39.26
2017-12-01T09:07:07.329Z,39.26
2017-12-01T09:08:16.755Z,39.26
2017-12-01T09:09:25.980Z,39.26
2017-12-01T09:10:35.408Z,39.36
2017-12-01T09:11:44.609Z,39.16
2017-12-01T09:12:54.020Z,39.36
2017-12-01T09:14:03.192Z,39.26
2017-12-01T09:15:12.642Z,39.36
2017-12-01T09:16:21.330Z,39.36
2017-12-01T09:17:30.009Z,39.36
2017-12-01T09:18:39.210Z,39.36
2017-12-01T09:19:48.368Z,39.36
2017-12-01T09:20:57.817Z,39.36
2017-12-01T09:22:07.027Z,39.36
2017-12-01T09:23:16.971Z,39.16
2017-12-01T09:24:25.628Z,38.97
2017-12-01T09:25:35.083Z,39.16
2017-12-01T09:26:43.998Z,39.16
2017-12-01T09:27:53.183Z,38.97
2017-12-01T09:29:02.103Z,38.87
2017-12-01T09:30:11.024Z,38.87
2017-12-01T09:31:20.213Z,38.78
2017-12-01T09:32:28.874Z,38.87
2017-12-01T09:33:37.790Z,38.87
2017-12-01T09:34:46.427Z,38.78
2017-12-01T09:35:56.106Z,38.49
2017-12-01T09:37:05.263Z,38.68
2017-12-01T09:38:14.199Z,38.49
2017-12-01T09:39:23.393Z,38.68
2017-12-01T09:40:32.562Z,38.49
2017-12-01T09:41:41.749Z,38.49
2017-12-01T09:42:50.666Z,38.59
2017-12-01T09:44:00.082Z,38.68
2017-12-01T09:45:09.010Z,38.78
2017-12-01T09:46:17.938Z,38.68
2017-12-01T09:47:26.872Z,38.68
2017-12-01T09:48:36.308Z,38.49
2017-12-01T09:49:45.989Z,38.59
2017-12-01T09:50:55.160Z,38.68
2017-12-01T09:52:04.333Z,38.59
2017-12-01T09:53:12.982Z,38.59
2017-12-01T09:54:22.163Z,38.59
2017-12-01T09:55:31.637Z,38.59
2017-12-01T09:56:41.279Z,38.39
2017-12-01T09:57:50.186Z,38.39
2017-12-01T09:58:59.371Z,38.59
2017-12-01T10:00:08.277Z,38.59
2017-12-01T10:01:17.466Z,38.39
2017-12-01T10:02:26.419Z,38.68
2017-12-01T10:03:35.352Z,38.59
2017-12-01T10:04:45.066Z,38.49
2017-12-01T10:05:53.981Z,38.49
2017-12-01T10:07:03.425Z,38.59
2017-12-01T10:08:12.618Z,38.49
2017-12-01T10:09:21.828Z,38.59
2017-12-01T10:10:31.017Z,38.68
2017-12-01T10:11:39.709Z,38.59
2017-12-01T10:12:48.400Z,38.68
2017-12-01T10:13:57.335Z,38.49
2017-12-01T10:15:06.254Z,38.59
2017-12-01T10:16:15.446Z,38.59
2017-12-01T10:17:24.392Z,38.59
2017-12-01T10:18:33.568Z,38.59
2017-12-01T10:19:43.039Z,38.49
2017-12-01T10:20:51.958Z,38.59
2017-12-01T10:22:01.114Z,38.59
2017-12-01T10:23:09.786Z,38.39
2017-12-01T10:24:18.970Z,38.49
2017-12-01T10:25:28.134Z,38.59
2017-12-01T10:26:37.049Z,38.59
2017-12-01T10:27:46.206Z,38.49
2017-12-01T10:28:54.901Z,38.49
2017-12-01T10:30:04.077Z,38.49
2017-12-01T10:31:13.511Z,38.2
2017-12-01T10:32:22.416Z,38.49
2017-12-01T10:33:31.336Z,38.49
2017-12-01T10:34:40.785Z,38.59
2017-12-01T10:35:49.945Z,38.59
2017-12-01T10:36:59.396Z,38.29
2017-12-01T10:38:08.580Z,38.59
2017-12-01T10:39:17.265Z,38.2
2017-12-01T10:40:26.434Z,38.01
2017-12-01T10:41:35.068Z,38.01
2017-12-01T10:42:44.489Z,38.01
2017-12-01T10:43:53.939Z,38.01
2017-12-01T10:45:03.111Z,38.01
2017-12-01T10:46:12.008Z,38.01
2017-12-01T10:47:21.474Z,38.29
2017-12-01T10:48:30.643Z,38.01
2017-12-01T10:49:39.551Z,38.2
2017-12-01T10:50:48.203Z,38.39
2017-12-01T10:51:57.370Z,38.1
2017-12-01T10:53:06.829Z,38.29
2017-12-01T10:54:16.260Z,38.01
2017-12-01T10:55:25.678Z,38.01
2017-12-01T10:56:35.128Z,38.29
2017-12-01T10:57:44.048Z,38.01
2017-12-01T10:58:53.501Z,38.29
2017-12-01T11:00:03.261Z,38.01
2017-12-01T11:01:11.916Z,38.2
2017-12-01T11:02:20.832Z,38.49
2017-12-01T11:03:30.534Z,38.01
2017-12-01T11:04:39.205Z,38.01
2017-12-01T11:05:48.657Z,38.39
2017-12-01T11:06:57.577Z,38.29
2017-12-01T11:08:06.741Z,38.39
2017-12-01T11:09:15.422Z,38.01
2017-12-01T11:10:24.120Z,38.29
2017-12-01T11:11:33.290Z,38.39
2017-12-01T11:12:43.239Z,38.1
2017-12-01T11:13:52.423Z,38.29
2017-12-01T11:15:01.355Z,38.39
2017-12-01T11:16:10.790Z,38.39
2017-12-01T11:17:19.721Z,38.49
2017-12-01T11:18:28.908Z,38.49
2017-12-01T11:19:37.566Z,38.68
2017-12-01T11:20:47.330Z,38.68
2017-12-01T11:21:56.782Z,38.49
2017-12-01T11:23:05.452Z,38.37
2017-12-01T11:24:14.649Z,38.39
2017-12-01T11:25:23.566Z,38.78
2017-12-01T11:26:32.760Z,38.59
2017-12-01T11:27:41.692Z,38.59
2017-12-01T11:28:50.354Z,38.59
2017-12-01T11:29:59.026Z,38.39
2017-12-01T11:31:08.231Z,38.78
2017-12-01T11:32:17.444Z,38.56
2017-12-01T11:33:27.165Z,38.56
2017-12-01T11:34:36.081Z,38.37
2017-12-01T11:35:45.274Z,38.66
2017-12-01T11:36:54.195Z,38.47
2017-12-01T11:38:03.113Z,38.47
2017-12-01T11:39:12.289Z,38.37
2017-12-01T11:40:21.455Z,38.47
2017-12-01T11:41:30.905Z,38.37
2017-12-01T11:42:39.811Z,38.47
2017-12-01T11:43:49.049Z,38.66
2017-12-01T11:44:58.235Z,38.49
2017-12-01T11:46:07.413Z,38.47
2017-12-01T11:47:16.580Z,38.56
2017-12-01T11:48:26.307Z,38.47
2017-12-01T11:49:34.967Z,38.66
2017-12-01T11:50:43.894Z,38.66
2017-12-01T11:51:53.073Z,38.37
2017-12-01T11:53:01.997Z,38.37
2017-12-01T11:54:11.671Z,38.47
2017-12-01T11:55:20.837Z,38.37
2017-12-01T11:56:29.518Z,38.56
2017-12-01T11:57:38.413Z,38.28
2017-12-01T11:58:47.582Z,38.56
2017-12-01T11:59:56.765Z,38.47
2017-12-01T12:01:06.193Z,38.56
2017-12-01T12:02:15.357Z,38.47
2017-12-01T12:03:24.272Z,38.09
2017-12-01T12:04:33.181Z,37.99
2017-12-01T12:05:41.841Z,38.28
2017-12-01T12:06:50.494Z,38.28
2017-12-01T12:07:59.659Z,38.09
2017-12-01T12:09:08.589Z,38.18
2017-12-01T12:10:17.746Z,38.37
2017-12-01T12:11:26.947Z,38.39
2017-12-01T12:12:35.840Z,38.28
2017-12-01T12:13:44.491Z,38.28
2017-12-01T12:14:53.385Z,38.1
2017-12-01T12:16:02.561Z,38.1
2017-12-01T12:17:11.211Z,38.2
2017-12-01T12:18:20.123Z,38.09
2017-12-01T12:19:29.293Z,38.09
2017-12-01T12:20:38.222Z,38.2
2017-12-01T12:21:47.377Z,38.18
2017-12-01T12:22:56.282Z,38.18
2017-12-01T12:24:05.195Z,38.1
2017-12-01T12:25:14.101Z,38.2
2017-12-01T12:26:23.783Z,38.2
2017-12-01T12:27:32.707Z,38.18
2017-12-01T12:28:41.885Z,38.28
2017-12-01T12:29:50.542Z,38.2
2017-12-01T12:30:59.982Z,38.39
2017-12-01T12:32:09.154Z,38.28
2017-12-01T12:33:18.318Z,38.2
2017-12-01T12:34:26.981Z,38.1
2017-12-01T12:35:36.436Z,38.39
2017-12-01T12:36:45.342Z,38.2
2017-12-01T12:37:53.980Z,38.2
2017-12-01T12:39:03.164Z,38.29
2017-12-01T12:40:12.353Z,38.29
2017-12-01T12:41:21.256Z,38.28
2017-12-01T12:42:30.191Z,38.28
2017-12-01T12:43:39.362Z,38.29
2017-12-01T12:44:48.274Z,38.39
2017-12-01T12:45:57.189Z,38.28
2017-12-01T12:47:06.355Z,38.28
2017-12-01T12:48:15.519Z,38.47
2017-12-01T12:49:24.954Z,38.28
2017-12-01T12:50:33.607Z,38.28
2017-12-01T12:51:42.798Z,38.29
2017-12-01T12:52:51.738Z,38.37
2017-12-01T12:54:00.670Z,38.18
2017-12-01T12:55:09.347Z,38.18
2017-12-01T12:56:18.511Z,38.37
2017-12-01T12:57:27.691Z,38.28
2017-12-01T12:58:37.125Z,38.18
2017-12-01T12:59:46.532Z,38.37
2017-12-01T13:00:56.209Z,38.37
2017-12-01T13:02:05.163Z,38.37
2017-12-01T13:03:14.860Z,38.37
2017-12-01T13:04:24.294Z,38.37
2017-12-01T13:05:33.511Z,38.37
2017-12-01T13:06:42.423Z,38.37
2017-12-01T13:07:51.595Z,38.18
2017-12-01T13:09:00.494Z,38.18
2017-12-01T13:10:09.136Z,38.28
2017-12-01T13:11:18.576Z,38.28
2017-12-01T13:12:27.748Z,38.37
2017-12-01T13:13:36.402Z,38.37
2017-12-01T13:14:45.585Z,38.28
2017-12-01T13:15:54.507Z,38.37
2017-12-01T13:17:03.954Z,38.56
2017-12-01T13:18:13.130Z,38.37
2017-12-01T13:19:21.806Z,38.47
2017-12-01T13:20:30.988Z,38.28
2017-12-01T13:21:40.146Z,38.18
2017-12-01T13:22:49.328Z,38.28
2017-12-01T13:23:58.500Z,38.47
2017-12-01T13:25:07.688Z,38.37
2017-12-01T13:26:16.613Z,38.37
2017-12-01T13:27:25.538Z,38.28
2017-12-01T13:28:34.218Z,38.28
2017-12-01T13:29:43.163Z,38.18
2017-12-01T13:30:52.086Z,38.37
2017-12-01T13:32:01.581Z,38.28
2017-12-01T13:33:10.780Z,38.28
2017-12-01T13:34:19.694Z,38.28
2017-12-01T13:35:28.861Z,38.28
2017-12-01T13:36:38.303Z,38.28
2017-12-01T13:37:47.779Z,38.28
2017-12-01T13:38:56.683Z,38.37
2017-12-01T13:40:05.868Z,38.18
2017-12-01T13:41:14.515Z,38.18
2017-12-01T13:42:23.677Z,38.47
2017-12-01T13:43:32.340Z,38.28
2017-12-01T13:44:41.769Z,38.37
2017-12-01T13:45:51.187Z,38.28
2017-12-01T13:47:00.109Z,38.37
2017-12-01T13:48:09.033Z,38.37
2017-12-01T13:49:18.465Z,38.28
2017-12-01T13:50:27.700Z,38.28
2017-12-01T13:51:37.115Z,38.28
2017-12-01T13:52:46.024Z,38.28
2017-12-01T13:53:54.698Z,38.28
2017-12-01T13:55:03.856Z,38.28
2017-12-01T13:56:12.772Z,38.28
2017-12-01T13:57:21.730Z,38.28
2017-12-01T13:58:30.384Z,38.18
2017-12-01T13:59:39.578Z,38.28
2017-12-01T14:00:49.000Z,38.28
2017-12-01T14:01:58.171Z,38.28
2017-12-01T14:03:07.593Z,38.18
2017-12-01T14:04:17.017Z,38.37
2017-12-01T14:05:26.185Z,38.28
2017-12-01T14:06:35.335Z,38.28
2017-12-01T14:07:44.378Z,38.37
2017-12-01T14:08:53.542Z,38.47
2017-12-01T14:10:02.206Z,38.28
2017-12-01T14:11:11.106Z,38.28
2017-12-01T14:12:20.263Z,38.37
2017-12-01T14:13:29.443Z,38.37
2017-12-01T14:14:38.661Z,38.37
2017-12-01T14:15:47.546Z,38.28
2017-12-01T14:16:57.493Z,38.37
2017-12-01T14:18:07.175Z,38.56
2017-12-01T14:19:16.738Z,38.37
2017-12-01T14:20:25.709Z,38.37
2017-12-01T14:21:34.364Z,38.37
2017-12-01T14:22:44.045Z,38.28
2017-12-01T14:23:52.944Z,38.37
2017-12-01T14:25:02.377Z,38.37
2017-12-01T14:26:11.555Z,38.37
2017-12-01T14:27:20.506Z,38.09
2017-12-01T14:28:29.676Z,38.28
2017-12-01T14:29:38.586Z,38.37
2017-12-01T14:30:47.519Z,38.28
2017-12-01T14:31:56.948Z,38.09
2017-12-01T14:33:06.904Z,38.18
2017-12-01T14:34:16.075Z,38.37
2017-12-01T14:35:25.248Z,38.37
2017-12-01T14:36:34.669Z,38.18
2017-12-01T14:37:43.838Z,38.37
2017-12-01T14:38:52.988Z,38.35
2017-12-01T14:40:01.646Z,38.18
2017-12-01T14:41:10.817Z,38.18
2017-12-01T14:42:20.502Z,38.26
2017-12-01T14:43:29.690Z,38.16
2017-12-01T14:44:38.615Z,38.09
2017-12-01T14:45:48.304Z,38.16
2017-12-01T14:46:57.289Z,38.07
2017-12-01T14:48:06.199Z,38.09
2017-12-01T14:49:15.121Z,38.09
2017-12-01T14:50:24.087Z,38.09
2017-12-01T14:51:33.594Z,38.16
2017-12-01T14:52:42.248Z,38.37